Terminal Aerodrome Forecast
Issued by NWS Sterling, VA

Home | Current Version | Previous Version | Text Only | Print | Product List | Glossary On
Versions: 1 2 3 4 5 6 7 8 9 10 11 12 13 14 15 16 17 18 19 20 21 22 23 24 25
000
FTUS41 KLWX 192041 AAA
TAFIAD
TAF AMD
KIAD 192041Z 1921/2024 10012G19KT P6SM BKN040 OVC100
     FM192300 09011KT P6SM RA OVC020
     FM200100 08013KT 3SM +RA OVC010
     FM200800 14014KT 2SM RA OVC008
     FM201200 20007KT P6SM OVC008
     FM201600 21010KT P6SM BKN050
     FM202200 21010KT 5SM -SHRA BKN070=

USA.gov is the U.S. government's official web portal to all federal, state and local government web resources and services.